sensor_id;sensor_type;location;lat;lon;timestamp;P1;durP1;ratioP1;P2;durP2;ratioP2
59062;SDS011;44851;45.648;9.004;2024-02-23T00:00:27;8.87;;;7.97;;
59062;SDS011;44851;45.648;9.004;2024-02-23T00:02:53;8.93;;;7.60;;
59062;SDS011;44851;45.648;9.004;2024-02-23T00:05:21;8.23;;;6.90;;
59062;SDS011;44851;45.648;9.004;2024-02-23T00:07:46;8.27;;;7.17;;
59062;SDS011;44851;45.648;9.004;2024-02-23T00:10:12;8.37;;;6.97;;
59062;SDS011;44851;45.648;9.004;2024-02-23T00:12:37;7.93;;;7.03;;
59062;SDS011;44851;45.648;9.004;2024-02-23T00:15:02;8.17;;;6.87;;
59062;SDS011;44851;45.648;9.004;2024-02-23T00:17:28;8.43;;;6.33;;
59062;SDS011;44851;45.648;9.004;2024-02-23T00:19:53;7.17;;;6.47;;
59062;SDS011;44851;45.648;9.004;2024-02-23T00:22:19;6.97;;;6.23;;
59062;SDS011;44851;45.648;9.004;2024-02-23T00:24:44;8.67;;;6.53;;
59062;SDS011;44851;45.648;9.004;2024-02-23T00:27:09;7.40;;;6.07;;
59062;SDS011;44851;45.648;9.004;2024-02-23T00:29:35;7.17;;;6.10;;
59062;SDS011;44851;45.648;9.004;2024-02-23T00:32:01;6.60;;;5.43;;
59062;SDS011;44851;45.648;9.004;2024-02-23T00:34:27;5.70;;;5.20;;
59062;SDS011;44851;45.648;9.004;2024-02-23T00:36:52;5.40;;;4.63;;
59062;SDS011;44851;45.648;9.004;2024-02-23T00:39:17;5.37;;;4.80;;
59062;SDS011;44851;45.648;9.004;2024-02-23T00:41:43;7.37;;;5.23;;
59062;SDS011;44851;45.648;9.004;2024-02-23T00:44:08;5.13;;;4.63;;
59062;SDS011;44851;45.648;9.004;2024-02-23T00:46:33;5.73;;;5.07;;
59062;SDS011;44851;45.648;9.004;2024-02-23T00:48:59;5.73;;;5.03;;
59062;SDS011;44851;45.648;9.004;2024-02-23T00:51:25;5.73;;;5.20;;
59062;SDS011;44851;45.648;9.004;2024-02-23T00:53:50;6.23;;;5.13;;
59062;SDS011;44851;45.648;9.004;2024-02-23T00:56:15;5.10;;;3.97;;
59062;SDS011;44851;45.648;9.004;2024-02-23T00:58:41;4.73;;;4.30;;
59062;SDS011;44851;45.648;9.004;2024-02-23T01:01:06;5.67;;;4.67;;
59062;SDS011;44851;45.648;9.004;2024-02-23T01:03:31;4.80;;;4.20;;
59062;SDS011;44851;45.648;9.004;2024-02-23T01:05:57;4.90;;;4.37;;
59062;SDS011;44851;45.648;9.004;2024-02-23T01:08:23;5.17;;;4.20;;
59062;SDS011;44851;45.648;9.004;2024-02-23T01:10:48;5.43;;;4.03;;
59062;SDS011;44851;45.648;9.004;2024-02-23T01:13:13;5.20;;;4.70;;
59062;SDS011;44851;45.648;9.004;2024-02-23T01:15:39;4.83;;;4.13;;
59062;SDS011;44851;45.648;9.004;2024-02-23T01:18:04;5.17;;;4.70;;
59062;SDS011;44851;45.648;9.004;2024-02-23T01:20:33;4.77;;;4.10;;
59062;SDS011;44851;45.648;9.004;2024-02-23T01:22:59;3.93;;;3.50;;
59062;SDS011;44851;45.648;9.004;2024-02-23T01:25:24;4.63;;;3.63;;
59062;SDS011;44851;45.648;9.004;2024-02-23T01:27:49;5.83;;;4.10;;
59062;SDS011;44851;45.648;9.004;2024-02-23T01:30:15;4.53;;;3.70;;
59062;SDS011;44851;45.648;9.004;2024-02-23T01:32:40;3.90;;;3.40;;
59062;SDS011;44851;45.648;9.004;2024-02-23T01:35:06;4.87;;;3.43;;
59062;SDS011;44851;45.648;9.004;2024-02-23T01:37:32;4.10;;;3.70;;
59062;SDS011;44851;45.648;9.004;2024-02-23T01:39:58;3.57;;;3.27;;
59062;SDS011;44851;45.648;9.004;2024-02-23T01:42:24;5.30;;;4.20;;
59062;SDS011;44851;45.648;9.004;2024-02-23T01:44:50;4.93;;;3.47;;
59062;SDS011;44851;45.648;9.004;2024-02-23T01:47:16;5.37;;;3.87;;
59062;SDS011;44851;45.648;9.004;2024-02-23T01:49:42;4.30;;;3.53;;
59062;SDS011;44851;45.648;9.004;2024-02-23T01:52:07;4.30;;;3.90;;
59062;SDS011;44851;45.648;9.004;2024-02-23T01:54:33;4.17;;;3.27;;
59062;SDS011;44851;45.648;9.004;2024-02-23T01:56:59;7.23;;;6.07;;
59062;SDS011;44851;45.648;9.004;2024-02-23T01:59:25;5.50;;;4.20;;
59062;SDS011;44851;45.648;9.004;2024-02-23T02:01:51;3.87;;;3.50;;
59062;SDS011;44851;45.648;9.004;2024-02-23T02:04:17;4.67;;;3.43;;
59062;SDS011;44851;45.648;9.004;2024-02-23T02:06:42;4.40;;;3.70;;
59062;SDS011;44851;45.648;9.004;2024-02-23T02:09:11;3.90;;;3.60;;
59062;SDS011;44851;45.648;9.004;2024-02-23T02:11:44;4.90;;;4.17;;
59062;SDS011;44851;45.648;9.004;2024-02-23T02:14:11;5.17;;;4.47;;
59062;SDS011;44851;45.648;9.004;2024-02-23T02:16:36;5.53;;;4.43;;
59062;SDS011;44851;45.648;9.004;2024-02-23T02:19:01;4.70;;;4.30;;
59062;SDS011;44851;45.648;9.004;2024-02-23T02:21:27;5.27;;;4.20;;
59062;SDS011;44851;45.648;9.004;2024-02-23T02:23:53;5.50;;;4.47;;
59062;SDS011;44851;45.648;9.004;2024-02-23T02:26:18;4.00;;;3.50;;
59062;SDS011;44851;45.648;9.004;2024-02-23T02:28:44;3.17;;;2.83;;
59062;SDS011;44851;45.648;9.004;2024-02-23T02:31:09;1.97;;;1.47;;
59062;SDS011;44851;45.648;9.004;2024-02-23T02:33:34;1.67;;;1.47;;
59062;SDS011;44851;45.648;9.004;2024-02-23T02:36:00;2.27;;;1.20;;
59062;SDS011;44851;45.648;9.004;2024-02-23T02:38:25;1.90;;;1.40;;
59062;SDS011;44851;45.648;9.004;2024-02-23T02:40:51;1.47;;;1.10;;
59062;SDS011;44851;45.648;9.004;2024-02-23T02:43:16;2.27;;;1.20;;
59062;SDS011;44851;45.648;9.004;2024-02-23T02:45:41;2.23;;;1.10;;
59062;SDS011;44851;45.648;9.004;2024-02-23T02:48:07;1.13;;;0.97;;
59062;SDS011;44851;45.648;9.004;2024-02-23T02:50:32;1.13;;;1.00;;
59062;SDS011;44851;45.648;9.004;2024-02-23T02:52:57;1.00;;;1.00;;
59062;SDS011;44851;45.648;9.004;2024-02-23T02:55:23;3.80;;;1.00;;
59062;SDS011;44851;45.648;9.004;2024-02-23T02:57:48;1.10;;;0.70;;
59062;SDS011;44851;45.648;9.004;2024-02-23T03:00:13;0.90;;;0.83;;
59062;SDS011;44851;45.648;9.004;2024-02-23T03:02:39;1.93;;;1.10;;
59062;SDS011;44851;45.648;9.004;2024-02-23T03:05:04;1.33;;;1.07;;
59062;SDS011;44851;45.648;9.004;2024-02-23T03:07:30;2.67;;;1.00;;
59062;SDS011;44851;45.648;9.004;2024-02-23T03:09:56;1.57;;;0.87;;
59062;SDS011;44851;45.648;9.004;2024-02-23T03:12:22;1.10;;;0.90;;
59062;SDS011;44851;45.648;9.004;2024-02-23T03:14:48;1.53;;;0.80;;
59062;SDS011;44851;45.648;9.004;2024-02-23T03:17:13;1.07;;;0.90;;
59062;SDS011;44851;45.648;9.004;2024-02-23T03:19:39;0.90;;;0.90;;
59062;SDS011;44851;45.648;9.004;2024-02-23T03:22:05;0.93;;;0.90;;
59062;SDS011;44851;45.648;9.004;2024-02-23T03:24:30;1.00;;;0.90;;
59062;SDS011;44851;45.648;9.004;2024-02-23T03:26:55;1.60;;;0.73;;
59062;SDS011;44851;45.648;9.004;2024-02-23T03:29:21;1.90;;;0.70;;
59062;SDS011;44851;45.648;9.004;2024-02-23T03:31:49;0.67;;;0.67;;
59062;SDS011;44851;45.648;9.004;2024-02-23T03:34:17;0.93;;;0.83;;
59062;SDS011;44851;45.648;9.004;2024-02-23T03:36:42;2.40;;;0.90;;
59062;SDS011;44851;45.648;9.004;2024-02-23T03:39:08;0.93;;;0.80;;
59062;SDS011;44851;45.648;9.004;2024-02-23T03:41:33;1.10;;;0.80;;
59062;SDS011;44851;45.648;9.004;2024-02-23T03:43:59;0.87;;;0.50;;
59062;SDS011;44851;45.648;9.004;2024-02-23T03:46:24;0.93;;;0.70;;
59062;SDS011;44851;45.648;9.004;2024-02-23T03:48:49;1.10;;;1.00;;
59062;SDS011;44851;45.648;9.004;2024-02-23T03:51:15;2.53;;;0.70;;
59062;SDS011;44851;45.648;9.004;2024-02-23T03:53:41;0.83;;;0.73;;
59062;SDS011;44851;45.648;9.004;2024-02-23T03:56:06;0.60;;;0.60;;
59062;SDS011;44851;45.648;9.004;2024-02-23T03:58:32;0.73;;;0.70;;
59062;SDS011;44851;45.648;9.004;2024-02-23T04:00:57;1.03;;;0.70;;
59062;SDS011;44851;45.648;9.004;2024-02-23T04:03:22;1.40;;;0.73;;
59062;SDS011;44851;45.648;9.004;2024-02-23T04:05:48;0.50;;;0.50;;
59062;SDS011;44851;45.648;9.004;2024-02-23T04:08:13;0.43;;;0.43;;
59062;SDS011;44851;45.648;9.004;2024-02-23T04:10:38;0.57;;;0.50;;
59062;SDS011;44851;45.648;9.004;2024-02-23T04:13:04;0.77;;;0.50;;
59062;SDS011;44851;45.648;9.004;2024-02-23T04:15:29;0.50;;;0.50;;
59062;SDS011;44851;45.648;9.004;2024-02-23T04:17:54;0.60;;;0.60;;
59062;SDS011;44851;45.648;9.004;2024-02-23T04:20:19;0.80;;;0.60;;
59062;SDS011;44851;45.648;9.004;2024-02-23T04:22:45;1.50;;;0.63;;
59062;SDS011;44851;45.648;9.004;2024-02-23T04:25:11;0.53;;;0.53;;
59062;SDS011;44851;45.648;9.004;2024-02-23T04:27:36;0.70;;;0.60;;
59062;SDS011;44851;45.648;9.004;2024-02-23T04:30:02;0.70;;;0.70;;
59062;SDS011;44851;45.648;9.004;2024-02-23T04:32:28;0.60;;;0.60;;
59062;SDS011;44851;45.648;9.004;2024-02-23T04:34:53;0.50;;;0.50;;
59062;SDS011;44851;45.648;9.004;2024-02-23T04:37:19;0.70;;;0.50;;
59062;SDS011;44851;45.648;9.004;2024-02-23T04:39:44;1.07;;;0.80;;
59062;SDS011;44851;45.648;9.004;2024-02-23T04:42:09;0.67;;;0.67;;
59062;SDS011;44851;45.648;9.004;2024-02-23T04:44:35;1.03;;;0.60;;
59062;SDS011;44851;45.648;9.004;2024-02-23T04:47:01;0.93;;;0.60;;
59062;SDS011;44851;45.648;9.004;2024-02-23T04:49:26;0.93;;;0.70;;
59062;SDS011;44851;45.648;9.004;2024-02-23T04:51:52;1.80;;;1.20;;
59062;SDS011;44851;45.648;9.004;2024-02-23T04:54:17;1.47;;;1.20;;
59062;SDS011;44851;45.648;9.004;2024-02-23T04:56:43;1.70;;;1.20;;
59062;SDS011;44851;45.648;9.004;2024-02-23T04:59:09;2.10;;;1.20;;
59062;SDS011;44851;45.648;9.004;2024-02-23T05:01:35;1.27;;;1.17;;
59062;SDS011;44851;45.648;9.004;2024-02-23T05:04:03;1.30;;;0.80;;
59062;SDS011;44851;45.648;9.004;2024-02-23T05:06:29;1.57;;;1.17;;
59062;SDS011;44851;45.648;9.004;2024-02-23T05:08:55;1.80;;;1.10;;
59062;SDS011;44851;45.648;9.004;2024-02-23T05:11:20;1.57;;;1.20;;
59062;SDS011;44851;45.648;9.004;2024-02-23T05:13:46;0.87;;;0.70;;
59062;SDS011;44851;45.648;9.004;2024-02-23T05:16:13;0.63;;;0.63;;
59062;SDS011;44851;45.648;9.004;2024-02-23T05:18:39;1.00;;;0.80;;
59062;SDS011;44851;45.648;9.004;2024-02-23T05:21:05;1.07;;;0.60;;
59062;SDS011;44851;45.648;9.004;2024-02-23T05:23:30;1.17;;;0.67;;
59062;SDS011;44851;45.648;9.004;2024-02-23T05:25:56;1.23;;;0.77;;
59062;SDS011;44851;45.648;9.004;2024-02-23T05:28:21;0.90;;;0.67;;
59062;SDS011;44851;45.648;9.004;2024-02-23T05:30:47;0.80;;;0.67;;
59062;SDS011;44851;45.648;9.004;2024-02-23T05:33:12;0.60;;;0.60;;
59062;SDS011;44851;45.648;9.004;2024-02-23T05:35:37;0.60;;;0.60;;
59062;SDS011;44851;45.648;9.004;2024-02-23T05:38:03;1.13;;;0.70;;
59062;SDS011;44851;45.648;9.004;2024-02-23T05:40:29;1.00;;;0.80;;
59062;SDS011;44851;45.648;9.004;2024-02-23T05:42:54;1.00;;;0.90;;
59062;SDS011;44851;45.648;9.004;2024-02-23T05:45:20;1.43;;;0.80;;
59062;SDS011;44851;45.648;9.004;2024-02-23T05:47:45;1.03;;;0.93;;
59062;SDS011;44851;45.648;9.004;2024-02-23T05:50:10;1.70;;;1.30;;
59062;SDS011;44851;45.648;9.004;2024-02-23T05:52:36;2.60;;;1.30;;
59062;SDS011;44851;45.648;9.004;2024-02-23T05:55:02;1.60;;;1.20;;
59062;SDS011;44851;45.648;9.004;2024-02-23T05:57:28;1.10;;;0.93;;
59062;SDS011;44851;45.648;9.004;2024-02-23T05:59:54;1.13;;;0.83;;
59062;SDS011;44851;45.648;9.004;2024-02-23T06:02:20;1.37;;;0.80;;
59062;SDS011;44851;45.648;9.004;2024-02-23T06:04:46;1.47;;;0.80;;
59062;SDS011;44851;45.648;9.004;2024-02-23T06:07:12;0.80;;;0.80;;
59062;SDS011;44851;45.648;9.004;2024-02-23T06:09:38;1.20;;;1.07;;
59062;SDS011;44851;45.648;9.004;2024-02-23T06:12:04;2.50;;;0.93;;
59062;SDS011;44851;45.648;9.004;2024-02-23T06:14:30;1.17;;;0.90;;
59062;SDS011;44851;45.648;9.004;2024-02-23T06:16:55;1.77;;;1.67;;
59062;SDS011;44851;45.648;9.004;2024-02-23T06:19:21;2.47;;;2.07;;
59062;SDS011;44851;45.648;9.004;2024-02-23T06:21:49;1.50;;;1.10;;
59062;SDS011;44851;45.648;9.004;2024-02-23T06:24:15;1.00;;;0.87;;
59062;SDS011;44851;45.648;9.004;2024-02-23T06:26:41;0.73;;;0.73;;
59062;SDS011;44851;45.648;9.004;2024-02-23T06:29:07;0.63;;;0.63;;
59062;SDS011;44851;45.648;9.004;2024-02-23T06:31:36;0.73;;;0.70;;
59062;SDS011;44851;45.648;9.004;2024-02-23T06:34:02;1.17;;;1.03;;
59062;SDS011;44851;45.648;9.004;2024-02-23T06:36:27;1.57;;;0.80;;
59062;SDS011;44851;45.648;9.004;2024-02-23T06:38:52;0.80;;;0.80;;
59062;SDS011;44851;45.648;9.004;2024-02-23T06:41:18;1.03;;;0.93;;
59062;SDS011;44851;45.648;9.004;2024-02-23T06:43:43;1.33;;;1.10;;
59062;SDS011;44851;45.648;9.004;2024-02-23T06:46:08;2.80;;;2.60;;
59062;SDS011;44851;45.648;9.004;2024-02-23T06:48:35;3.73;;;3.30;;
59062;SDS011;44851;45.648;9.004;2024-02-23T06:51:02;3.13;;;2.27;;
59062;SDS011;44851;45.648;9.004;2024-02-23T06:53:28;3.10;;;2.00;;
59062;SDS011;44851;45.648;9.004;2024-02-23T06:55:54;1.60;;;1.50;;
59062;SDS011;44851;45.648;9.004;2024-02-23T06:58:19;2.07;;;1.50;;
59062;SDS011;44851;45.648;9.004;2024-02-23T07:00:44;2.50;;;1.70;;
59062;SDS011;44851;45.648;9.004;2024-02-23T07:03:10;2.73;;;1.93;;
59062;SDS011;44851;45.648;9.004;2024-02-23T07:05:35;3.40;;;1.80;;
59062;SDS011;44851;45.648;9.004;2024-02-23T07:08:01;2.20;;;1.80;;
59062;SDS011;44851;45.648;9.004;2024-02-23T07:10:27;2.07;;;1.70;;
59062;SDS011;44851;45.648;9.004;2024-02-23T07:12:52;2.13;;;1.93;;
59062;SDS011;44851;45.648;9.004;2024-02-23T07:15:19;1.40;;;1.30;;
59062;SDS011;44851;45.648;9.004;2024-02-23T07:17:45;1.67;;;1.43;;
59062;SDS011;44851;45.648;9.004;2024-02-23T07:20:11;1.57;;;1.30;;
59062;SDS011;44851;45.648;9.004;2024-02-23T07:22:36;1.30;;;1.20;;
59062;SDS011;44851;45.648;9.004;2024-02-23T07:25:02;1.87;;;1.50;;
59062;SDS011;44851;45.648;9.004;2024-02-23T07:27:29;2.80;;;1.53;;
59062;SDS011;44851;45.648;9.004;2024-02-23T07:29:54;1.57;;;1.23;;
59062;SDS011;44851;45.648;9.004;2024-02-23T07:32:20;1.33;;;1.00;;
59062;SDS011;44851;45.648;9.004;2024-02-23T07:34:45;2.57;;;1.23;;
59062;SDS011;44851;45.648;9.004;2024-02-23T07:37:10;1.10;;;1.00;;
59062;SDS011;44851;45.648;9.004;2024-02-23T07:39:36;2.07;;;1.10;;
59062;SDS011;44851;45.648;9.004;2024-02-23T07:42:01;2.47;;;1.53;;
59062;SDS011;44851;45.648;9.004;2024-02-23T07:44:28;2.30;;;2.10;;
59062;SDS011;44851;45.648;9.004;2024-02-23T07:46:53;2.70;;;2.20;;
59062;SDS011;44851;45.648;9.004;2024-02-23T07:49:20;1.90;;;1.80;;
59062;SDS011;44851;45.648;9.004;2024-02-23T07:51:47;3.50;;;2.50;;
59062;SDS011;44851;45.648;9.004;2024-02-23T07:54:12;3.60;;;3.30;;
59062;SDS011;44851;45.648;9.004;2024-02-23T07:56:37;7.10;;;6.40;;
59062;SDS011;44851;45.648;9.004;2024-02-23T07:59:03;6.50;;;5.90;;
59062;SDS011;44851;45.648;9.004;2024-02-23T08:01:28;5.43;;;4.83;;
59062;SDS011;44851;45.648;9.004;2024-02-23T08:03:53;5.47;;;4.50;;
59062;SDS011;44851;45.648;9.004;2024-02-23T08:06:19;5.07;;;4.60;;
59062;SDS011;44851;45.648;9.004;2024-02-23T08:08:45;5.07;;;4.57;;
59062;SDS011;44851;45.648;9.004;2024-02-23T08:11:11;3.33;;;3.13;;
59062;SDS011;44851;45.648;9.004;2024-02-23T08:13:37;2.77;;;2.10;;
59062;SDS011;44851;45.648;9.004;2024-02-23T08:16:03;1.90;;;1.70;;
59062;SDS011;44851;45.648;9.004;2024-02-23T08:18:28;3.13;;;1.90;;
59062;SDS011;44851;45.648;9.004;2024-02-23T08:20:54;2.27;;;2.07;;
59062;SDS011;44851;45.648;9.004;2024-02-23T08:23:19;2.90;;;2.30;;
59062;SDS011;44851;45.648;9.004;2024-02-23T08:25:45;2.60;;;2.40;;
59062;SDS011;44851;45.648;9.004;2024-02-23T08:28:11;2.73;;;2.53;;
59062;SDS011;44851;45.648;9.004;2024-02-23T08:30:37;1.97;;;1.87;;
59062;SDS011;44851;45.648;9.004;2024-02-23T08:33:02;2.30;;;2.10;;
59062;SDS011;44851;45.648;9.004;2024-02-23T08:35:27;2.30;;;2.10;;
59062;SDS011;44851;45.648;9.004;2024-02-23T08:37:53;2.27;;;1.90;;
59062;SDS011;44851;45.648;9.004;2024-02-23T08:40:18;2.47;;;2.20;;
59062;SDS011;44851;45.648;9.004;2024-02-23T08:42:44;2.20;;;2.00;;
59062;SDS011;44851;45.648;9.004;2024-02-23T08:45:09;2.93;;;1.90;;
59062;SDS011;44851;45.648;9.004;2024-02-23T08:47:37;2.30;;;1.83;;
59062;SDS011;44851;45.648;9.004;2024-02-23T08:50:03;2.60;;;2.20;;
59062;SDS011;44851;45.648;9.004;2024-02-23T08:52:29;2.60;;;2.40;;
59062;SDS011;44851;45.648;9.004;2024-02-23T08:54:55;2.87;;;2.63;;
59062;SDS011;44851;45.648;9.004;2024-02-23T08:57:20;3.30;;;3.00;;
59062;SDS011;44851;45.648;9.004;2024-02-23T08:59:47;6.13;;;5.53;;
59062;SDS011;44851;45.648;9.004;2024-02-23T09:02:13;6.07;;;4.97;;
59062;SDS011;44851;45.648;9.004;2024-02-23T09:04:39;4.77;;;4.03;;
59062;SDS011;44851;45.648;9.004;2024-02-23T09:07:04;6.57;;;4.97;;
59062;SDS011;44851;45.648;9.004;2024-02-23T09:09:30;6.07;;;4.40;;
59062;SDS011;44851;45.648;9.004;2024-02-23T09:11:55;4.50;;;3.60;;
59062;SDS011;44851;45.648;9.004;2024-02-23T09:14:20;3.27;;;2.97;;
59062;SDS011;44851;45.648;9.004;2024-02-23T09:16:46;2.93;;;2.63;;
59062;SDS011;44851;45.648;9.004;2024-02-23T09:19:12;2.83;;;2.33;;
59062;SDS011;44851;45.648;9.004;2024-02-23T09:21:37;3.57;;;3.20;;
59062;SDS011;44851;45.648;9.004;2024-02-23T09:24:03;4.10;;;2.80;;
59062;SDS011;44851;45.648;9.004;2024-02-23T09:26:29;2.67;;;2.47;;
59062;SDS011;44851;45.648;9.004;2024-02-23T09:28:54;2.87;;;2.47;;
59062;SDS011;44851;45.648;9.004;2024-02-23T09:31:20;2.30;;;2.10;;
59062;SDS011;44851;45.648;9.004;2024-02-23T09:33:45;1.97;;;1.77;;
59062;SDS011;44851;45.648;9.004;2024-02-23T09:36:11;2.00;;;1.87;;
59062;SDS011;44851;45.648;9.004;2024-02-23T09:38:37;2.87;;;1.70;;
59062;SDS011;44851;45.648;9.004;2024-02-23T09:41:04;2.00;;;1.80;;
59062;SDS011;44851;45.648;9.004;2024-02-23T09:43:29;4.43;;;3.53;;
59062;SDS011;44851;45.648;9.004;2024-02-23T09:45:57;3.17;;;2.87;;
59062;SDS011;44851;45.648;9.004;2024-02-23T09:48:23;2.97;;;2.60;;
59062;SDS011;44851;45.648;9.004;2024-02-23T09:50:49;3.17;;;2.87;;
59062;SDS011;44851;45.648;9.004;2024-02-23T09:53:14;3.93;;;3.13;;
59062;SDS011;44851;45.648;9.004;2024-02-23T09:55:42;5.53;;;4.07;;
59062;SDS011;44851;45.648;9.004;2024-02-23T09:58:10;5.10;;;4.00;;
59062;SDS011;44851;45.648;9.004;2024-02-23T10:00:37;6.47;;;4.77;;
59062;SDS011;44851;45.648;9.004;2024-02-23T10:03:03;4.97;;;3.47;;
59062;SDS011;44851;45.648;9.004;2024-02-23T10:05:29;4.70;;;3.40;;
59062;SDS011;44851;45.648;9.004;2024-02-23T10:07:56;3.03;;;2.20;;
59062;SDS011;44851;45.648;9.004;2024-02-23T10:10:29;3.07;;;2.33;;
59062;SDS011;44851;45.648;9.004;2024-02-23T10:12:56;2.67;;;2.23;;
59062;SDS011;44851;45.648;9.004;2024-02-23T10:15:22;2.53;;;2.33;;
59062;SDS011;44851;45.648;9.004;2024-02-23T10:17:47;2.40;;;2.20;;
59062;SDS011;44851;45.648;9.004;2024-02-23T10:20:13;2.73;;;2.10;;
59062;SDS011;44851;45.648;9.004;2024-02-23T10:22:39;2.17;;;1.90;;
59062;SDS011;44851;45.648;9.004;2024-02-23T10:25:04;4.73;;;2.30;;
59062;SDS011;44851;45.648;9.004;2024-02-23T10:27:30;1.97;;;1.87;;
59062;SDS011;44851;45.648;9.004;2024-02-23T10:29:55;2.67;;;2.00;;
59062;SDS011;44851;45.648;9.004;2024-02-23T10:32:20;2.10;;;1.67;;
59062;SDS011;44851;45.648;9.004;2024-02-23T10:34:49;2.20;;;1.80;;
59062;SDS011;44851;45.648;9.004;2024-02-23T10:37:17;2.07;;;1.60;;
59062;SDS011;44851;45.648;9.004;2024-02-23T10:39:43;1.50;;;1.40;;
59062;SDS011;44851;45.648;9.004;2024-02-23T10:42:10;1.63;;;1.53;;
59062;SDS011;44851;45.648;9.004;2024-02-23T10:44:37;2.90;;;1.67;;
59062;SDS011;44851;45.648;9.004;2024-02-23T10:47:04;2.10;;;1.90;;
59062;SDS011;44851;45.648;9.004;2024-02-23T10:49:30;3.07;;;2.23;;
59062;SDS011;44851;45.648;9.004;2024-02-23T10:51:56;4.77;;;3.67;;
59062;SDS011;44851;45.648;9.004;2024-02-23T10:54:22;3.20;;;2.90;;
59062;SDS011;44851;45.648;9.004;2024-02-23T10:56:49;3.47;;;2.60;;
59062;SDS011;44851;45.648;9.004;2024-02-23T10:59:15;2.67;;;2.47;;
59062;SDS011;44851;45.648;9.004;2024-02-23T11:01:44;2.67;;;2.17;;
59062;SDS011;44851;45.648;9.004;2024-02-23T11:04:14;1.77;;;1.67;;
59062;SDS011;44851;45.648;9.004;2024-02-23T11:06:41;2.10;;;1.90;;
59062;SDS011;44851;45.648;9.004;2024-02-23T11:09:07;3.50;;;2.10;;
59062;SDS011;44851;45.648;9.004;2024-02-23T11:11:36;2.63;;;1.70;;
59062;SDS011;44851;45.648;9.004;2024-02-23T11:14:02;1.80;;;1.70;;
59062;SDS011;44851;45.648;9.004;2024-02-23T11:16:32;2.43;;;1.73;;
59062;SDS011;44851;45.648;9.004;2024-02-23T11:19:03;1.83;;;1.73;;
59062;SDS011;44851;45.648;9.004;2024-02-23T11:21:33;2.53;;;2.17;;
59062;SDS011;44851;45.648;9.004;2024-02-23T11:24:01;3.33;;;2.10;;
59062;SDS011;44851;45.648;9.004;2024-02-23T11:26:31;2.67;;;2.33;;
59062;SDS011;44851;45.648;9.004;2024-02-23T11:29:09;2.97;;;2.57;;
59062;SDS011;44851;45.648;9.004;2024-02-23T11:31:35;2.50;;;2.30;;
59062;SDS011;44851;45.648;9.004;2024-02-23T11:34:00;2.50;;;2.27;;
59062;SDS011;44851;45.648;9.004;2024-02-23T11:36:29;2.47;;;2.20;;
59062;SDS011;44851;45.648;9.004;2024-02-23T11:38:57;2.50;;;2.30;;
59062;SDS011;44851;45.648;9.004;2024-02-23T11:41:24;2.60;;;2.40;;
59062;SDS011;44851;45.648;9.004;2024-02-23T11:43:50;2.73;;;2.50;;
59062;SDS011;44851;45.648;9.004;2024-02-23T11:46:16;2.67;;;2.47;;
59062;SDS011;44851;45.648;9.004;2024-02-23T11:48:43;3.27;;;2.90;;
59062;SDS011;44851;45.648;9.004;2024-02-23T11:51:18;3.13;;;2.90;;
59062;SDS011;44851;45.648;9.004;2024-02-23T11:53:44;8.63;;;3.73;;
59062;SDS011;44851;45.648;9.004;2024-02-23T11:56:10;4.00;;;3.70;;
59062;SDS011;44851;45.648;9.004;2024-02-23T11:58:36;4.47;;;4.07;;
59062;SDS011;44851;45.648;9.004;2024-02-23T12:01:03;3.93;;;3.57;;
59062;SDS011;44851;45.648;9.004;2024-02-23T12:03:29;5.50;;;3.53;;
59062;SDS011;44851;45.648;9.004;2024-02-23T12:05:58;4.60;;;4.20;;
59062;SDS011;44851;45.648;9.004;2024-02-23T12:08:27;3.70;;;3.27;;
59062;SDS011;44851;45.648;9.004;2024-02-23T12:10:56;5.43;;;4.27;;
59062;SDS011;44851;45.648;9.004;2024-02-23T12:13:22;4.70;;;3.83;;
59062;SDS011;44851;45.648;9.004;2024-02-23T12:15:48;3.87;;;3.57;;
59062;SDS011;44851;45.648;9.004;2024-02-23T12:18:17;4.63;;;4.23;;
59062;SDS011;44851;45.648;9.004;2024-02-23T12:20:43;4.57;;;4.17;;
59062;SDS011;44851;45.648;9.004;2024-02-23T12:23:12;4.23;;;3.83;;
59062;SDS011;44851;45.648;9.004;2024-02-23T12:25:37;4.50;;;4.10;;
59062;SDS011;44851;45.648;9.004;2024-02-23T12:28:03;4.27;;;3.97;;
59062;SDS011;44851;45.648;9.004;2024-02-23T12:30:29;5.63;;;4.40;;
59062;SDS011;44851;45.648;9.004;2024-02-23T12:33:03;4.70;;;4.30;;
59062;SDS011;44851;45.648;9.004;2024-02-23T12:35:32;5.00;;;4.60;;
59062;SDS011;44851;45.648;9.004;2024-02-23T12:37:59;5.17;;;4.73;;
59062;SDS011;44851;45.648;9.004;2024-02-23T12:40:24;5.33;;;4.83;;
59062;SDS011;44851;45.648;9.004;2024-02-23T12:42:49;5.30;;;4.90;;
59062;SDS011;44851;45.648;9.004;2024-02-23T12:45:15;5.17;;;4.77;;
59062;SDS011;44851;45.648;9.004;2024-02-23T12:47:40;5.73;;;5.23;;
59062;SDS011;44851;45.648;9.004;2024-02-23T12:50:05;4.83;;;4.43;;
59062;SDS011;44851;45.648;9.004;2024-02-23T12:52:33;5.60;;;5.20;;
59062;SDS011;44851;45.648;9.004;2024-02-23T12:54:58;5.70;;;5.20;;
59062;SDS011;44851;45.648;9.004;2024-02-23T12:57:24;5.83;;;5.33;;
59062;SDS011;44851;45.648;9.004;2024-02-23T12:59:49;4.60;;;4.30;;
59062;SDS011;44851;45.648;9.004;2024-02-23T13:02:14;4.23;;;3.90;;
59062;SDS011;44851;45.648;9.004;2024-02-23T13:04:40;4.20;;;3.90;;
59062;SDS011;44851;45.648;9.004;2024-02-23T13:07:06;4.83;;;4.43;;
59062;SDS011;44851;45.648;9.004;2024-02-23T13:09:31;4.10;;;3.80;;
59062;SDS011;44851;45.648;9.004;2024-02-23T13:11:57;4.00;;;3.70;;
59062;SDS011;44851;45.648;9.004;2024-02-23T13:14:22;3.80;;;3.50;;
59062;SDS011;44851;45.648;9.004;2024-02-23T13:16:48;4.20;;;3.80;;
59062;SDS011;44851;45.648;9.004;2024-02-23T13:19:13;4.27;;;3.87;;
59062;SDS011;44851;45.648;9.004;2024-02-23T13:21:38;4.20;;;3.90;;
59062;SDS011;44851;45.648;9.004;2024-02-23T13:24:04;3.90;;;3.57;;
59062;SDS011;44851;45.648;9.004;2024-02-23T13:26:31;3.83;;;3.00;;
59062;SDS011;44851;45.648;9.004;2024-02-23T13:28:56;4.13;;;3.13;;
59062;SDS011;44851;45.648;9.004;2024-02-23T13:31:21;3.67;;;3.37;;
59062;SDS011;44851;45.648;9.004;2024-02-23T13:33:47;3.60;;;3.30;;
59062;SDS011;44851;45.648;9.004;2024-02-23T13:36:12;3.70;;;3.40;;
59062;SDS011;44851;45.648;9.004;2024-02-23T13:38:38;3.77;;;3.47;;
59062;SDS011;44851;45.648;9.004;2024-02-23T13:41:04;3.43;;;2.83;;
59062;SDS011;44851;45.648;9.004;2024-02-23T13:43:30;3.23;;;2.73;;
59062;SDS011;44851;45.648;9.004;2024-02-23T13:45:56;3.53;;;3.00;;
59062;SDS011;44851;45.648;9.004;2024-02-23T13:48:21;4.00;;;3.67;;
59062;SDS011;44851;45.648;9.004;2024-02-23T13:50:47;4.13;;;3.73;;
59062;SDS011;44851;45.648;9.004;2024-02-23T13:53:13;3.73;;;3.30;;
59062;SDS011;44851;45.648;9.004;2024-02-23T13:55:39;4.73;;;4.10;;
59062;SDS011;44851;45.648;9.004;2024-02-23T13:58:06;4.17;;;3.83;;
59062;SDS011;44851;45.648;9.004;2024-02-23T14:00:32;4.23;;;3.87;;
59062;SDS011;44851;45.648;9.004;2024-02-23T14:02:57;4.23;;;3.83;;
59062;SDS011;44851;45.648;9.004;2024-02-23T14:05:23;4.03;;;3.67;;
59062;SDS011;44851;45.648;9.004;2024-02-23T14:07:50;3.83;;;3.53;;
59062;SDS011;44851;45.648;9.004;2024-02-23T14:10:16;5.07;;;4.20;;
59062;SDS011;44851;45.648;9.004;2024-02-23T14:12:42;4.90;;;4.50;;
59062;SDS011;44851;45.648;9.004;2024-02-23T14:15:08;4.90;;;4.50;;
59062;SDS011;44851;45.648;9.004;2024-02-23T14:17:34;5.07;;;4.53;;
59062;SDS011;44851;45.648;9.004;2024-02-23T14:19:59;5.53;;;4.97;;
59062;SDS011;44851;45.648;9.004;2024-02-23T14:22:25;4.67;;;4.27;;
59062;SDS011;44851;45.648;9.004;2024-02-23T14:24:52;4.57;;;4.17;;
59062;SDS011;44851;45.648;9.004;2024-02-23T14:27:18;5.00;;;4.60;;
59062;SDS011;44851;45.648;9.004;2024-02-23T14:29:43;5.10;;;4.60;;
59062;SDS011;44851;45.648;9.004;2024-02-23T14:32:09;5.10;;;4.60;;
59062;SDS011;44851;45.648;9.004;2024-02-23T14:34:35;6.10;;;5.50;;
59062;SDS011;44851;45.648;9.004;2024-02-23T14:37:00;7.47;;;6.77;;
59062;SDS011;44851;45.648;9.004;2024-02-23T14:39:25;8.17;;;7.47;;